sensor_id;sensor_type;location;lat;lon;timestamp;P1;durP1;ratioP1;P2;durP2;ratioP2
3121;SDS011;1571;52.524;14.104;2023-06-19T00:00:17;12.13;;;10.87;;
3121;SDS011;1571;52.524;14.104;2023-06-19T00:02:46;12.23;;;10.17;;
3121;SDS011;1571;52.524;14.104;2023-06-19T00:05:14;11.63;;;10.73;;
3121;SDS011;1571;52.524;14.104;2023-06-19T00:07:43;11.80;;;10.87;;
3121;SDS011;1571;52.524;14.104;2023-06-19T00:10:11;12.60;;;11.30;;
3121;SDS011;1571;52.524;14.104;2023-06-19T00:12:39;13.87;;;12.23;;
3121;SDS011;1571;52.524;14.104;2023-06-19T00:15:08;15.23;;;11.10;;
3121;SDS011;1571;52.524;14.104;2023-06-19T00:17:38;13.63;;;12.43;;
3121;SDS011;1571;52.524;14.104;2023-06-19T00:20:07;13.50;;;12.17;;
3121;SDS011;1571;52.524;14.104;2023-06-19T00:22:36;13.73;;;12.63;;
3121;SDS011;1571;52.524;14.104;2023-06-19T00:25:04;13.40;;;12.30;;
3121;SDS011;1571;52.524;14.104;2023-06-19T00:27:33;12.77;;;11.67;;
3121;SDS011;1571;52.524;14.104;2023-06-19T00:30:01;12.50;;;11.50;;
3121;SDS011;1571;52.524;14.104;2023-06-19T00:32:30;13.17;;;12.17;;
3121;SDS011;1571;52.524;14.104;2023-06-19T00:34:59;13.37;;;12.27;;
3121;SDS011;1571;52.524;14.104;2023-06-19T00:37:29;14.27;;;12.97;;
3121;SDS011;1571;52.524;14.104;2023-06-19T00:39:59;12.17;;;11.17;;
3121;SDS011;1571;52.524;14.104;2023-06-19T00:42:27;13.00;;;11.93;;
3121;SDS011;1571;52.524;14.104;2023-06-19T00:44:56;13.70;;;12.60;;
3121;SDS011;1571;52.524;14.104;2023-06-19T00:47:24;15.33;;;13.80;;
3121;SDS011;1571;52.524;14.104;2023-06-19T00:49:53;12.50;;;11.40;;
3121;SDS011;1571;52.524;14.104;2023-06-19T00:52:23;14.60;;;13.37;;
3121;SDS011;1571;52.524;14.104;2023-06-19T00:54:51;12.67;;;11.67;;
3121;SDS011;1571;52.524;14.104;2023-06-19T00:57:20;12.47;;;11.57;;
3121;SDS011;1571;52.524;14.104;2023-06-19T00:59:50;13.60;;;12.60;;
3121;SDS011;1571;52.524;14.104;2023-06-19T01:02:20;13.27;;;12.27;;
3121;SDS011;1571;52.524;14.104;2023-06-19T01:04:50;14.20;;;13.10;;
3121;SDS011;1571;52.524;14.104;2023-06-19T01:07:25;14.03;;;12.93;;
3121;SDS011;1571;52.524;14.104;2023-06-19T01:10:01;12.77;;;11.87;;
3121;SDS011;1571;52.524;14.104;2023-06-19T01:12:33;13.07;;;11.87;;
3121;SDS011;1571;52.524;14.104;2023-06-19T01:15:15;13.30;;;12.30;;
3121;SDS011;1571;52.524;14.104;2023-06-19T01:17:44;13.27;;;12.27;;
3121;SDS011;1571;52.524;14.104;2023-06-19T01:20:14;13.57;;;12.40;;
3121;SDS011;1571;52.524;14.104;2023-06-19T01:22:45;14.63;;;13.50;;
3121;SDS011;1571;52.524;14.104;2023-06-19T01:25:13;13.30;;;12.20;;
3121;SDS011;1571;52.524;14.104;2023-06-19T01:27:41;14.87;;;13.33;;
3121;SDS011;1571;52.524;14.104;2023-06-19T01:30:11;12.87;;;11.87;;
3121;SDS011;1571;52.524;14.104;2023-06-19T01:32:41;13.10;;;12.00;;
3121;SDS011;1571;52.524;14.104;2023-06-19T01:35:15;13.03;;;11.77;;
3121;SDS011;1571;52.524;14.104;2023-06-19T01:37:48;12.37;;;11.37;;
3121;SDS011;1571;52.524;14.104;2023-06-19T01:40:20;13.37;;;12.43;;
3121;SDS011;1571;52.524;14.104;2023-06-19T01:42:53;13.37;;;12.20;;
3121;SDS011;1571;52.524;14.104;2023-06-19T01:45:22;13.90;;;12.70;;
3121;SDS011;1571;52.524;14.104;2023-06-19T01:47:51;13.80;;;12.70;;
3121;SDS011;1571;52.524;14.104;2023-06-19T01:50:20;13.77;;;12.57;;
3121;SDS011;1571;52.524;14.104;2023-06-19T01:52:51;12.50;;;11.50;;
3121;SDS011;1571;52.524;14.104;2023-06-19T01:55:20;14.03;;;12.83;;
3121;SDS011;1571;52.524;14.104;2023-06-19T01:57:49;14.07;;;12.97;;
3121;SDS011;1571;52.524;14.104;2023-06-19T02:00:18;13.10;;;12.10;;
3121;SDS011;1571;52.524;14.104;2023-06-19T02:02:47;15.00;;;13.87;;
3121;SDS011;1571;52.524;14.104;2023-06-19T02:05:17;13.60;;;12.60;;
3121;SDS011;1571;52.524;14.104;2023-06-19T02:07:45;13.10;;;12.10;;
3121;SDS011;1571;52.524;14.104;2023-06-19T02:10:16;14.30;;;13.17;;
3121;SDS011;1571;52.524;14.104;2023-06-19T02:12:45;15.17;;;13.87;;
3121;SDS011;1571;52.524;14.104;2023-06-19T02:15:13;14.40;;;13.20;;
3121;SDS011;1571;52.524;14.104;2023-06-19T02:17:42;13.43;;;12.43;;
3121;SDS011;1571;52.524;14.104;2023-06-19T02:20:10;14.90;;;13.60;;
3121;SDS011;1571;52.524;14.104;2023-06-19T02:22:39;15.73;;;14.53;;
3121;SDS011;1571;52.524;14.104;2023-06-19T02:25:08;15.27;;;13.97;;
3121;SDS011;1571;52.524;14.104;2023-06-19T02:27:37;15.57;;;14.27;;
3121;SDS011;1571;52.524;14.104;2023-06-19T02:30:06;14.10;;;13.00;;
3121;SDS011;1571;52.524;14.104;2023-06-19T02:32:35;14.63;;;13.43;;
3121;SDS011;1571;52.524;14.104;2023-06-19T02:35:04;15.63;;;14.43;;
3121;SDS011;1571;52.524;14.104;2023-06-19T02:37:35;14.63;;;13.43;;
3121;SDS011;1571;52.524;14.104;2023-06-19T02:40:04;14.80;;;13.63;;
3121;SDS011;1571;52.524;14.104;2023-06-19T02:42:33;15.47;;;14.17;;
3121;SDS011;1571;52.524;14.104;2023-06-19T02:45:03;15.53;;;13.87;;
3121;SDS011;1571;52.524;14.104;2023-06-19T02:47:31;14.80;;;13.40;;
3121;SDS011;1571;52.524;14.104;2023-06-19T02:50:01;15.60;;;14.20;;
3121;SDS011;1571;52.524;14.104;2023-06-19T02:52:31;15.20;;;14.00;;
3121;SDS011;1571;52.524;14.104;2023-06-19T02:54:59;15.90;;;14.50;;
3121;SDS011;1571;52.524;14.104;2023-06-19T02:57:29;15.53;;;14.13;;
3121;SDS011;1571;52.524;14.104;2023-06-19T02:59:57;14.63;;;13.23;;
3121;SDS011;1571;52.524;14.104;2023-06-19T03:02:27;13.80;;;12.67;;
3121;SDS011;1571;52.524;14.104;2023-06-19T03:04:56;15.57;;;14.20;;
3121;SDS011;1571;52.524;14.104;2023-06-19T03:07:24;15.43;;;14.07;;
3121;SDS011;1571;52.524;14.104;2023-06-19T03:09:55;15.17;;;13.97;;
3121;SDS011;1571;52.524;14.104;2023-06-19T03:12:23;15.50;;;13.20;;
3121;SDS011;1571;52.524;14.104;2023-06-19T03:14:52;16.73;;;15.13;;
3121;SDS011;1571;52.524;14.104;2023-06-19T03:17:21;15.00;;;13.77;;
3121;SDS011;1571;52.524;14.104;2023-06-19T03:19:51;16.67;;;15.30;;
3121;SDS011;1571;52.524;14.104;2023-06-19T03:22:20;16.13;;;14.53;;
3121;SDS011;1571;52.524;14.104;2023-06-19T03:24:49;16.60;;;15.23;;
3121;SDS011;1571;52.524;14.104;2023-06-19T03:27:20;15.27;;;13.90;;
3121;SDS011;1571;52.524;14.104;2023-06-19T03:29:49;14.53;;;13.33;;
3121;SDS011;1571;52.524;14.104;2023-06-19T03:32:25;15.73;;;14.30;;
3121;SDS011;1571;52.524;14.104;2023-06-19T03:34:57;15.70;;;14.47;;
3121;SDS011;1571;52.524;14.104;2023-06-19T03:37:26;15.83;;;14.43;;
3121;SDS011;1571;52.524;14.104;2023-06-19T03:39:54;16.77;;;15.33;;
3121;SDS011;1571;52.524;14.104;2023-06-19T03:42:23;18.43;;;16.80;;
3121;SDS011;1571;52.524;14.104;2023-06-19T03:44:51;15.50;;;14.10;;
3121;SDS011;1571;52.524;14.104;2023-06-19T03:47:20;16.00;;;14.50;;
3121;SDS011;1571;52.524;14.104;2023-06-19T03:49:49;15.33;;;14.03;;
3121;SDS011;1571;52.524;14.104;2023-06-19T03:52:19;16.37;;;15.03;;
3121;SDS011;1571;52.524;14.104;2023-06-19T03:54:49;16.20;;;14.60;;
3121;SDS011;1571;52.524;14.104;2023-06-19T03:57:18;16.57;;;15.10;;
3121;SDS011;1571;52.524;14.104;2023-06-19T03:59:46;15.37;;;14.07;;
3121;SDS011;1571;52.524;14.104;2023-06-19T04:02:14;15.50;;;14.30;;
3121;SDS011;1571;52.524;14.104;2023-06-19T04:04:43;15.57;;;14.30;;
3121;SDS011;1571;52.524;14.104;2023-06-19T04:07:12;15.67;;;14.27;;
3121;SDS011;1571;52.524;14.104;2023-06-19T04:09:42;14.80;;;13.57;;
3121;SDS011;1571;52.524;14.104;2023-06-19T04:12:10;15.43;;;13.90;;
3121;SDS011;1571;52.524;14.104;2023-06-19T04:14:39;15.20;;;13.83;;
3121;SDS011;1571;52.524;14.104;2023-06-19T04:17:09;15.57;;;14.17;;
3121;SDS011;1571;52.524;14.104;2023-06-19T04:19:37;14.00;;;12.83;;
3121;SDS011;1571;52.524;14.104;2023-06-19T04:22:05;14.23;;;13.10;;
3121;SDS011;1571;52.524;14.104;2023-06-19T04:24:34;13.23;;;12.20;;
3121;SDS011;1571;52.524;14.104;2023-06-19T04:27:04;14.53;;;13.33;;
3121;SDS011;1571;52.524;14.104;2023-06-19T04:29:35;13.43;;;12.33;;
3121;SDS011;1571;52.524;14.104;2023-06-19T04:32:03;14.67;;;13.67;;
3121;SDS011;1571;52.524;14.104;2023-06-19T04:34:38;15.23;;;13.93;;
3121;SDS011;1571;52.524;14.104;2023-06-19T04:37:07;14.57;;;13.27;;
3121;SDS011;1571;52.524;14.104;2023-06-19T04:39:35;14.00;;;12.97;;
3121;SDS011;1571;52.524;14.104;2023-06-19T04:42:05;14.20;;;13.00;;
3121;SDS011;1571;52.524;14.104;2023-06-19T04:44:34;14.07;;;12.93;;
3121;SDS011;1571;52.524;14.104;2023-06-19T04:47:02;15.90;;;14.13;;
3121;SDS011;1571;52.524;14.104;2023-06-19T04:49:31;15.00;;;13.80;;
3121;SDS011;1571;52.524;14.104;2023-06-19T04:51:59;14.33;;;13.20;;
3121;SDS011;1571;52.524;14.104;2023-06-19T04:54:27;16.03;;;14.67;;
3121;SDS011;1571;52.524;14.104;2023-06-19T04:56:59;15.80;;;14.50;;
3121;SDS011;1571;52.524;14.104;2023-06-19T04:59:29;15.30;;;14.10;;
3121;SDS011;1571;52.524;14.104;2023-06-19T05:01:58;16.07;;;14.63;;
3121;SDS011;1571;52.524;14.104;2023-06-19T05:04:26;14.90;;;13.70;;
3121;SDS011;1571;52.524;14.104;2023-06-19T05:06:54;19.80;;;15.53;;
3121;SDS011;1571;52.524;14.104;2023-06-19T05:09:23;14.90;;;13.70;;
3121;SDS011;1571;52.524;14.104;2023-06-19T05:11:51;15.97;;;14.77;;
3121;SDS011;1571;52.524;14.104;2023-06-19T05:14:20;16.50;;;15.20;;
3121;SDS011;1571;52.524;14.104;2023-06-19T05:16:49;16.10;;;14.77;;
3121;SDS011;1571;52.524;14.104;2023-06-19T05:19:18;16.03;;;14.80;;
3121;SDS011;1571;52.524;14.104;2023-06-19T05:21:46;14.30;;;13.00;;
3121;SDS011;1571;52.524;14.104;2023-06-19T05:24:14;15.87;;;14.57;;
3121;SDS011;1571;52.524;14.104;2023-06-19T05:26:43;17.20;;;15.50;;
3121;SDS011;1571;52.524;14.104;2023-06-19T05:29:11;19.50;;;14.60;;
3121;SDS011;1571;52.524;14.104;2023-06-19T05:31:40;16.70;;;14.93;;
3121;SDS011;1571;52.524;14.104;2023-06-19T05:34:10;16.27;;;14.97;;
3121;SDS011;1571;52.524;14.104;2023-06-19T05:36:38;17.47;;;16.07;;
3121;SDS011;1571;52.524;14.104;2023-06-19T05:39:07;16.90;;;15.50;;
3121;SDS011;1571;52.524;14.104;2023-06-19T05:41:36;17.33;;;15.93;;
3121;SDS011;1571;52.524;14.104;2023-06-19T05:44:05;15.77;;;14.63;;
3121;SDS011;1571;52.524;14.104;2023-06-19T05:46:33;17.37;;;15.73;;
3121;SDS011;1571;52.524;14.104;2023-06-19T05:49:01;17.30;;;15.80;;
3121;SDS011;1571;52.524;14.104;2023-06-19T05:51:31;14.97;;;13.87;;
3121;SDS011;1571;52.524;14.104;2023-06-19T05:53:59;16.40;;;15.00;;
3121;SDS011;1571;52.524;14.104;2023-06-19T05:56:30;16.60;;;15.10;;
3121;SDS011;1571;52.524;14.104;2023-06-19T05:59:00;14.63;;;13.53;;
3121;SDS011;1571;52.524;14.104;2023-06-19T06:01:29;15.70;;;14.30;;
3121;SDS011;1571;52.524;14.104;2023-06-19T06:03:57;15.10;;;13.80;;
3121;SDS011;1571;52.524;14.104;2023-06-19T06:06:26;15.77;;;14.40;;
3121;SDS011;1571;52.524;14.104;2023-06-19T06:08:56;14.90;;;13.70;;
3121;SDS011;1571;52.524;14.104;2023-06-19T06:11:24;14.93;;;13.93;;
3121;SDS011;1571;52.524;14.104;2023-06-19T06:13:53;15.40;;;14.20;;
3121;SDS011;1571;52.524;14.104;2023-06-19T06:16:21;15.80;;;14.23;;
3121;SDS011;1571;52.524;14.104;2023-06-19T06:18:50;15.47;;;13.93;;
3121;SDS011;1571;52.524;14.104;2023-06-19T06:21:18;15.77;;;14.57;;
3121;SDS011;1571;52.524;14.104;2023-06-19T06:23:46;16.37;;;15.17;;
3121;SDS011;1571;52.524;14.104;2023-06-19T06:26:16;15.47;;;14.27;;
3121;SDS011;1571;52.524;14.104;2023-06-19T06:28:45;15.07;;;13.83;;
3121;SDS011;1571;52.524;14.104;2023-06-19T06:31:13;14.13;;;13.03;;
3121;SDS011;1571;52.524;14.104;2023-06-19T06:33:42;13.53;;;12.50;;
3121;SDS011;1571;52.524;14.104;2023-06-19T06:36:10;16.17;;;12.63;;
3121;SDS011;1571;52.524;14.104;2023-06-19T06:38:55;14.30;;;13.30;;
3121;SDS011;1571;52.524;14.104;2023-06-19T06:41:25;13.43;;;12.20;;
3121;SDS011;1571;52.524;14.104;2023-06-19T06:43:53;14.47;;;13.27;;
3121;SDS011;1571;52.524;14.104;2023-06-19T06:46:22;13.63;;;12.43;;
3121;SDS011;1571;52.524;14.104;2023-06-19T06:48:50;13.67;;;12.57;;
3121;SDS011;1571;52.524;14.104;2023-06-19T06:51:19;14.70;;;13.37;;
3121;SDS011;1571;52.524;14.104;2023-06-19T06:53:49;14.07;;;12.97;;
3121;SDS011;1571;52.524;14.104;2023-06-19T06:56:18;13.07;;;12.03;;
3121;SDS011;1571;52.524;14.104;2023-06-19T06:58:48;12.00;;;11.10;;
3121;SDS011;1571;52.524;14.104;2023-06-19T07:01:16;13.03;;;11.93;;
3121;SDS011;1571;52.524;14.104;2023-06-19T07:03:44;13.40;;;12.30;;
3121;SDS011;1571;52.524;14.104;2023-06-19T07:06:13;11.70;;;10.80;;
3121;SDS011;1571;52.524;14.104;2023-06-19T07:08:41;12.83;;;11.87;;
3121;SDS011;1571;52.524;14.104;2023-06-19T07:11:09;12.90;;;11.90;;
3121;SDS011;1571;52.524;14.104;2023-06-19T07:13:38;11.43;;;10.63;;
3121;SDS011;1571;52.524;14.104;2023-06-19T07:16:08;11.43;;;10.33;;
3121;SDS011;1571;52.524;14.104;2023-06-19T07:18:36;13.77;;;12.67;;
3121;SDS011;1571;52.524;14.104;2023-06-19T07:21:06;10.83;;;10.07;;
3121;SDS011;1571;52.524;14.104;2023-06-19T07:23:39;13.47;;;12.37;;
3121;SDS011;1571;52.524;14.104;2023-06-19T07:26:08;11.70;;;10.80;;
3121;SDS011;1571;52.524;14.104;2023-06-19T07:28:37;13.03;;;12.03;;
3121;SDS011;1571;52.524;14.104;2023-06-19T07:31:05;12.47;;;11.43;;
3121;SDS011;1571;52.524;14.104;2023-06-19T07:33:35;11.87;;;10.87;;
3121;SDS011;1571;52.524;14.104;2023-06-19T07:36:03;12.30;;;11.20;;
3121;SDS011;1571;52.524;14.104;2023-06-19T07:38:32;12.73;;;11.57;;
3121;SDS011;1571;52.524;14.104;2023-06-19T07:41:00;11.10;;;10.07;;
3121;SDS011;1571;52.524;14.104;2023-06-19T07:43:28;13.67;;;12.53;;
3121;SDS011;1571;52.524;14.104;2023-06-19T07:45:57;13.30;;;11.93;;
3121;SDS011;1571;52.524;14.104;2023-06-19T07:48:26;11.73;;;10.73;;
3121;SDS011;1571;52.524;14.104;2023-06-19T07:50:55;12.33;;;11.43;;
3121;SDS011;1571;52.524;14.104;2023-06-19T07:53:24;12.60;;;11.60;;
3121;SDS011;1571;52.524;14.104;2023-06-19T07:55:52;11.60;;;10.80;;
3121;SDS011;1571;52.524;14.104;2023-06-19T07:58:21;12.23;;;11.33;;
3121;SDS011;1571;52.524;14.104;2023-06-19T08:00:49;12.40;;;11.40;;
3121;SDS011;1571;52.524;14.104;2023-06-19T08:03:17;12.50;;;11.57;;
3121;SDS011;1571;52.524;14.104;2023-06-19T08:05:46;12.47;;;11.57;;
3121;SDS011;1571;52.524;14.104;2023-06-19T08:08:15;12.87;;;11.80;;
3121;SDS011;1571;52.524;14.104;2023-06-19T08:10:44;12.70;;;11.77;;
3121;SDS011;1571;52.524;14.104;2023-06-19T08:13:12;13.13;;;12.00;;
3121;SDS011;1571;52.524;14.104;2023-06-19T08:15:40;14.63;;;10.97;;
3121;SDS011;1571;52.524;14.104;2023-06-19T08:18:09;12.77;;;11.90;;
3121;SDS011;1571;52.524;14.104;2023-06-19T08:20:37;12.67;;;11.47;;
3121;SDS011;1571;52.524;14.104;2023-06-19T08:23:06;12.67;;;11.73;;
3121;SDS011;1571;52.524;14.104;2023-06-19T08:25:36;12.77;;;11.80;;
3121;SDS011;1571;52.524;14.104;2023-06-19T08:28:04;13.00;;;11.67;;
3121;SDS011;1571;52.524;14.104;2023-06-19T08:30:32;11.93;;;10.97;;
3121;SDS011;1571;52.524;14.104;2023-06-19T08:33:01;12.53;;;11.43;;
3121;SDS011;1571;52.524;14.104;2023-06-19T08:35:29;11.93;;;11.13;;
3121;SDS011;1571;52.524;14.104;2023-06-19T08:37:57;13.77;;;12.67;;
3121;SDS011;1571;52.524;14.104;2023-06-19T08:40:26;11.20;;;10.30;;
3121;SDS011;1571;52.524;14.104;2023-06-19T08:42:56;11.70;;;10.77;;
3121;SDS011;1571;52.524;14.104;2023-06-19T08:45:25;13.37;;;12.00;;
3121;SDS011;1571;52.524;14.104;2023-06-19T08:47:57;12.63;;;11.53;;
3121;SDS011;1571;52.524;14.104;2023-06-19T08:50:26;12.97;;;12.00;;
3121;SDS011;1571;52.524;14.104;2023-06-19T08:52:55;11.97;;;11.07;;
3121;SDS011;1571;52.524;14.104;2023-06-19T08:55:24;12.87;;;11.73;;
3121;SDS011;1571;52.524;14.104;2023-06-19T08:57:52;13.13;;;11.47;;
3121;SDS011;1571;52.524;14.104;2023-06-19T09:00:26;12.60;;;11.70;;
3121;SDS011;1571;52.524;14.104;2023-06-19T09:03:01;13.07;;;12.17;;
3121;SDS011;1571;52.524;14.104;2023-06-19T09:05:40;13.37;;;12.37;;
3121;SDS011;1571;52.524;14.104;2023-06-19T09:08:17;13.40;;;12.20;;
3121;SDS011;1571;52.524;14.104;2023-06-19T09:10:57;11.37;;;10.50;;
3121;SDS011;1571;52.524;14.104;2023-06-19T09:13:26;11.27;;;10.23;;
3121;SDS011;1571;52.524;14.104;2023-06-19T09:15:58;12.20;;;11.30;;
3121;SDS011;1571;52.524;14.104;2023-06-19T09:18:29;12.70;;;11.53;;
3121;SDS011;1571;52.524;14.104;2023-06-19T09:20:58;10.33;;;9.43;;
3121;SDS011;1571;52.524;14.104;2023-06-19T09:23:26;11.60;;;10.60;;
3121;SDS011;1571;52.524;14.104;2023-06-19T09:25:58;11.30;;;10.30;;
3121;SDS011;1571;52.524;14.104;2023-06-19T09:28:31;13.23;;;12.33;;
3121;SDS011;1571;52.524;14.104;2023-06-19T09:31:01;11.80;;;10.90;;
3121;SDS011;1571;52.524;14.104;2023-06-19T09:33:32;12.07;;;11.03;;
3121;SDS011;1571;52.524;14.104;2023-06-19T09:36:02;13.83;;;12.73;;
3121;SDS011;1571;52.524;14.104;2023-06-19T09:38:32;11.20;;;10.33;;
3121;SDS011;1571;52.524;14.104;2023-06-19T09:41:02;11.50;;;10.50;;
3121;SDS011;1571;52.524;14.104;2023-06-19T09:43:33;15.00;;;13.80;;
3121;SDS011;1571;52.524;14.104;2023-06-19T09:46:05;14.83;;;13.63;;
3121;SDS011;1571;52.524;14.104;2023-06-19T09:48:34;14.70;;;13.60;;
3121;SDS011;1571;52.524;14.104;2023-06-19T09:51:09;15.50;;;14.20;;
3121;SDS011;1571;52.524;14.104;2023-06-19T09:53:44;12.73;;;11.83;;
3121;SDS011;1571;52.524;14.104;2023-06-19T09:56:13;15.43;;;14.17;;
3121;SDS011;1571;52.524;14.104;2023-06-19T09:58:42;17.40;;;16.10;;
3121;SDS011;1571;52.524;14.104;2023-06-19T10:01:12;16.27;;;14.87;;
3121;SDS011;1571;52.524;14.104;2023-06-19T10:03:42;16.17;;;14.70;;
3121;SDS011;1571;52.524;14.104;2023-06-19T10:06:13;15.90;;;14.70;;
3121;SDS011;1571;52.524;14.104;2023-06-19T10:08:43;15.60;;;14.40;;
3121;SDS011;1571;52.524;14.104;2023-06-19T10:11:13;15.83;;;14.47;;
3121;SDS011;1571;52.524;14.104;2023-06-19T10:13:42;14.70;;;13.60;;
3121;SDS011;1571;52.524;14.104;2023-06-19T10:16:20;15.83;;;14.70;;
3121;SDS011;1571;52.524;14.104;2023-06-19T10:18:49;14.97;;;13.73;;
3121;SDS011;1571;52.524;14.104;2023-06-19T10:21:18;13.23;;;12.30;;
3121;SDS011;1571;52.524;14.104;2023-06-19T10:23:54;13.70;;;12.70;;
3121;SDS011;1571;52.524;14.104;2023-06-19T10:26:31;14.90;;;13.60;;
3121;SDS011;1571;52.524;14.104;2023-06-19T10:29:12;13.33;;;12.23;;
3121;SDS011;1571;52.524;14.104;2023-06-19T10:31:43;12.67;;;11.77;;
3121;SDS011;1571;52.524;14.104;2023-06-19T10:34:12;13.30;;;12.20;;
3121;SDS011;1571;52.524;14.104;2023-06-19T10:36:40;12.10;;;11.10;;
3121;SDS011;1571;52.524;14.104;2023-06-19T10:39:08;10.40;;;9.60;;
3121;SDS011;1571;52.524;14.104;2023-06-19T10:41:39;10.63;;;9.73;;
3121;SDS011;1571;52.524;14.104;2023-06-19T10:44:08;12.10;;;10.97;;
3121;SDS011;1571;52.524;14.104;2023-06-19T10:46:39;9.93;;;9.23;;
3121;SDS011;1571;52.524;14.104;2023-06-19T10:49:10;10.33;;;9.43;;
3121;SDS011;1571;52.524;14.104;2023-06-19T10:51:40;9.93;;;9.20;;
3121;SDS011;1571;52.524;14.104;2023-06-19T10:54:10;10.80;;;10.00;;
3121;SDS011;1571;52.524;14.104;2023-06-19T10:56:39;9.80;;;8.93;;
3121;SDS011;1571;52.524;14.104;2023-06-19T10:59:08;9.87;;;9.07;;
3121;SDS011;1571;52.524;14.104;2023-06-19T11:01:39;9.63;;;9.00;;
3121;SDS011;1571;52.524;14.104;2023-06-19T11:04:11;10.10;;;9.30;;
3121;SDS011;1571;52.524;14.104;2023-06-19T11:06:40;10.17;;;8.83;;
3121;SDS011;1571;52.524;14.104;2023-06-19T11:09:10;11.27;;;10.07;;
3121;SDS011;1571;52.524;14.104;2023-06-19T11:11:40;9.90;;;9.20;;
3121;SDS011;1571;52.524;14.104;2023-06-19T11:14:10;9.33;;;8.63;;
3121;SDS011;1571;52.524;14.104;2023-06-19T11:16:41;10.40;;;9.50;;
3121;SDS011;1571;52.524;14.104;2023-06-19T11:19:16;9.57;;;8.77;;
3121;SDS011;1571;52.524;14.104;2023-06-19T11:21:46;8.97;;;8.27;;
3121;SDS011;1571;52.524;14.104;2023-06-19T11:24:15;9.10;;;8.17;;
3121;SDS011;1571;52.524;14.104;2023-06-19T11:26:46;9.60;;;8.90;;
3121;SDS011;1571;52.524;14.104;2023-06-19T11:29:19;9.67;;;8.93;;
3121;SDS011;1571;52.524;14.104;2023-06-19T11:31:49;10.20;;;9.17;;
3121;SDS011;1571;52.524;14.104;2023-06-19T11:34:30;9.90;;;9.10;;
3121;SDS011;1571;52.524;14.104;2023-06-19T11:36:59;10.53;;;8.50;;
3121;SDS011;1571;52.524;14.104;2023-06-19T11:39:27;10.73;;;9.93;;
3121;SDS011;1571;52.524;14.104;2023-06-19T11:41:58;8.93;;;8.23;;
3121;SDS011;1571;52.524;14.104;2023-06-19T11:44:26;8.87;;;8.27;;
3121;SDS011;1571;52.524;14.104;2023-06-19T11:46:56;10.10;;;9.40;;
3121;SDS011;1571;52.524;14.104;2023-06-19T11:49:26;10.23;;;9.30;;
3121;SDS011;1571;52.524;14.104;2023-06-19T11:51:59;9.93;;;9.03;;
3121;SDS011;1571;52.524;14.104;2023-06-19T11:54:27;8.83;;;8.23;;
3121;SDS011;1571;52.524;14.104;2023-06-19T11:56:55;8.60;;;7.97;;
3121;SDS011;1571;52.524;14.104;2023-06-19T11:59:24;10.00;;;9.20;;
3121;SDS011;1571;52.524;14.104;2023-06-19T12:01:52;9.77;;;9.17;;
3121;SDS011;1571;52.524;14.104;2023-06-19T12:04:23;9.47;;;8.87;;
3121;SDS011;1571;52.524;14.104;2023-06-19T12:06:53;10.43;;;9.73;;
3121;SDS011;1571;52.524;14.104;2023-06-19T12:09:21;9.97;;;9.20;;
3121;SDS011;1571;52.524;14.104;2023-06-19T12:11:50;10.23;;;9.53;;
3121;SDS011;1571;52.524;14.104;2023-06-19T12:14:18;10.20;;;9.40;;
3121;SDS011;1571;52.524;14.104;2023-06-19T12:16:48;11.40;;;10.37;;
3121;SDS011;1571;52.524;14.104;2023-06-19T12:19:16;10.93;;;10.13;;
3121;SDS011;1571;52.524;14.104;2023-06-19T12:21:47;10.70;;;9.93;;
3121;SDS011;1571;52.524;14.104;2023-06-19T12:24:16;13.13;;;12.00;;
3121;SDS011;1571;52.524;14.104;2023-06-19T12:26:46;12.03;;;11.13;;
3121;SDS011;1571;52.524;14.104;2023-06-19T12:29:14;12.47;;;11.40;;
3121;SDS011;1571;52.524;14.104;2023-06-19T12:31:43;12.67;;;11.57;;
3121;SDS011;1571;52.524;14.104;2023-06-19T12:34:11;11.60;;;10.80;;
3121;SDS011;1571;52.524;14.104;2023-06-19T12:36:57;13.00;;;12.10;;
3121;SDS011;1571;52.524;14.104;2023-06-19T12:39:26;13.47;;;12.47;;
3121;SDS011;1571;52.524;14.104;2023-06-19T12:41:55;13.90;;;12.60;;
3121;SDS011;1571;52.524;14.104;2023-06-19T12:44:23;13.27;;;12.27;;
3121;SDS011;1571;52.524;14.104;2023-06-19T12:46:52;12.47;;;11.50;;
3121;SDS011;1571;52.524;14.104;2023-06-19T12:49:20;12.83;;;11.93;;
3121;SDS011;1571;52.524;14.104;2023-06-19T12:51:49;13.37;;;12.40;;
3121;SDS011;1571;52.524;14.104;2023-06-19T12:54:19;14.07;;;13.03;;
3121;SDS011;1571;52.524;14.104;2023-06-19T12:56:48;12.50;;;11.60;;
3121;SDS011;1571;52.524;14.104;2023-06-19T12:59:17;12.63;;;11.73;;
3121;SDS011;1571;52.524;14.104;2023-06-19T13:01:46;12.53;;;11.47;;
3121;SDS011;1571;52.524;14.104;2023-06-19T13:04:15;12.57;;;11.50;;
3121;SDS011;1571;52.524;14.104;2023-06-19T13:06:43;12.47;;;11.50;;
3121;SDS011;1571;52.524;14.104;2023-06-19T13:09:12;12.30;;;11.50;;
3121;SDS011;1571;52.524;14.104;2023-06-19T13:11:40;13.73;;;12.63;;
3121;SDS011;1571;52.524;14.104;2023-06-19T13:14:10;12.87;;;11.97;;
3121;SDS011;1571;52.524;14.104;2023-06-19T13:16:38;14.27;;;13.07;;
3121;SDS011;1571;52.524;14.104;2023-06-19T13:19:13;12.80;;;11.50;;
3121;SDS011;1571;52.524;14.104;2023-06-19T13:21:41;12.57;;;11.53;;
3121;SDS011;1571;52.524;14.104;2023-06-19T13:24:10;11.00;;;10.20;;
3121;SDS011;1571;52.524;14.104;2023-06-19T13:26:39;11.30;;;10.50;;
3121;SDS011;1571;52.524;14.104;2023-06-19T13:29:09;11.20;;;10.33;;
3121;SDS011;1571;52.524;14.104;2023-06-19T13:31:39;10.13;;;9.43;;
3121;SDS011;1571;52.524;14.104;2023-06-19T13:34:07;10.73;;;9.90;;
3121;SDS011;1571;52.524;14.104;2023-06-19T13:36:36;11.27;;;10.47;;
3121;SDS011;1571;52.524;14.104;2023-06-19T13:39:04;12.30;;;11.43;;
3121;SDS011;1571;52.524;14.104;2023-06-19T13:41:32;10.00;;;9.30;;
3121;SDS011;1571;52.524;14.104;2023-06-19T13:44:01;11.80;;;10.97;;
3121;SDS011;1571;52.524;14.104;2023-06-19T13:46:31;9.10;;;8.40;;
3121;SDS011;1571;52.524;14.104;2023-06-19T13:49:00;8.33;;;7.73;;
3121;SDS011;1571;52.524;14.104;2023-06-19T13:51:28;9.77;;;8.97;;
3121;SDS011;1571;52.524;14.104;2023-06-19T13:53:57;8.53;;;7.90;;
3121;SDS011;1571;52.524;14.104;2023-06-19T13:56:25;9.17;;;8.47;;
3121;SDS011;1571;52.524;14.104;2023-06-19T13:58:54;8.23;;;7.73;;
3121;SDS011;1571;52.524;14.104;2023-06-19T14:01:22;8.70;;;8.07;;
3121;SDS011;1571;52.524;14.104;2023-06-19T14:03:53;8.20;;;7.40;;
3121;SDS011;1571;52.524;14.104;2023-06-19T14:06:24;8.07;;;7.50;;
3121;SDS011;1571;52.524;14.104;2023-06-19T14:08:53;8.47;;;7.87;;
3121;SDS011;1571;52.524;14.104;2023-06-19T14:11:25;7.70;;;7.10;;
3121;SDS011;1571;52.524;14.104;2023-06-19T14:13:53;10.00;;;7.97;;
3121;SDS011;1571;52.524;14.104;2023-06-19T14:16:22;7.87;;;7.00;;
3121;SDS011;1571;52.524;14.104;2023-06-19T14:18:50;7.60;;;7.10;;
3121;SDS011;1571;52.524;14.104;2023-06-19T14:21:20;8.20;;;7.60;;
3121;SDS011;1571;52.524;14.104;2023-06-19T14:23:49;8.83;;;8.23;;
3121;SDS011;1571;52.524;14.104;2023-06-19T14:26:17;8.50;;;7.70;;
3121;SDS011;1571;52.524;14.104;2023-06-19T14:28:46;7.90;;;7.40;;
3121;SDS011;1571;52.524;14.104;2023-06-19T14:31:14;8.23;;;7.73;;
3121;SDS011;1571;52.524;14.104;2023-06-19T14:33:42;8.07;;;7.60;;
3121;SDS011;1571;52.524;14.104;2023-06-19T14:36:11;8.83;;;8.13;;
3121;SDS011;1571;52.524;14.104;2023-06-19T14:38:41;8.80;;;8.10;;
3121;SDS011;1571;52.524;14.104;2023-06-19T14:41:09;8.33;;;7.73;;
3121;SDS011;1571;52.524;14.104;2023-06-19T14:43:37;8.27;;;7.67;;
3121;SDS011;1571;52.524;14.104;2023-06-19T14:46:06;8.57;;;7.97;;
3121;SDS011;1571;52.524;14.104;2023-06-19T14:48:34;7.53;;;7.03;;
3121;SDS011;1571;52.524;14.104;2023-06-19T14:51:02;8.40;;;7.80;;